San Luis Obispo, CA

10:55 AM PDT on August 20, 2017 (GMT -0700)
San Luis Obispo County-McChesney | | Change Station

Elev 207 ft 35.24 °N, 120.64 °W | Updated 22 minutes ago

Overcast
Overcast
65 °F
Feels Like 65 °F
N
5
Wind Variable Wind from SSE

Today
High -- | Low -- °F
--% Chance of Precip.
Yesterday
High -- | Low -- °F
Precip. -- in
Pressure 29.95 in
Visibility 10.0 miles
Clouds Overcast 1300 ft
Dew Point 59 °F
Humidity 81%
Rainfall 0.00 in
Snow Depth Not available.
6:26 AM 7:44 PM
Waning Crescent, 1% visible
SPECI KSBP 201733Z 15004KT 10SM OVC013 18/15 A2995 RMK AO2 T01830150
Pressure 29.95 in
Visibility 10.0 miles
Clouds Overcast 1300 ft
Dew Point 59 °F
Humidity 81%
Rainfall 0.00 in
Snow Depth Not available.
6:26 AM 7:44 PM
Waning Crescent, 1% visible
SPECI KSBP 201733Z 15004KT 10SM OVC013 18/15 A2995 RMK AO2 T01830150

Get Severe Weather Alerts

Thanks for signing up!

Be on the lookout for a verification email in your inbox.

You'll start receiving the daily forecast at 6 AM.

×

10-Day Weather Forecast

Almanac

Astronomy

Aug. 20, 2017 Rise Set
Actual Time
Civil Twilight
Nautical Twilight
Astronomical Twilight
Moon
Length of Visible Light
Length of Day
Tomorrow will be .
, % of the Moon is Illuminated

Today's Extremes

State Highs State Lows

Community

WunderPhotos

Category 6

Welcome to Category 6. This is the collective home for Weather Underground's featured writeups by Dr. Jeff Masters (right), Bob Henson (left), Chris Burt, and other regular contributors.

Nearby

Air Quality

  Air Quality AQ Index Pollutant
Not available.

Snow Depth

Station Depth Elevation

Earthquake Activity

City Distance Mag. Time & Date
Minimum magnitude displayed is 2.5.

Coastal Water Temperatures

Place Temperature

Stations

Nearby Weather Stations

Station Location Temp. Windchill Dew Point Humidity Wind Precip. Elev Updated Type
                   

Watches & Warnings

There are currently no watches in effect.